Time;durP1;ratioP1;P1;durP2;ratioP2;P2;SDS_P1;SDS_P2;PMS_P1;PMS_P2;Temp;Humidity;BMP_temperature;BMP_pressure;BME280_temperature;BME280_humidity;BME280_pressure;Samples;Min_cycle;Max_cycle;Signal;HPM_P1;HPM_P2
2021/04/30 00:00:52;;;;;;;10.48;8.18;;;8.00;96.20;;;;;;5062026;28;20039;-46
2021/04/30 00:03:18;;;;;;;8.75;7.80;;;8.00;96.00;;;;;;5061887;28;20021;-47
2021/04/30 00:05:44;;;;;;;8.65;7.85;;;8.10;96.20;;;;;;5062600;28;20080;-48
2021/04/30 00:08:10;;;;;;;8.85;8.05;;;8.00;96.40;;;;;;5044115;28;20568;-51
2021/04/30 00:10:35;;;;;;;10.45;8.00;;;8.00;96.20;;;;;;5061785;28;20399;-48
2021/04/30 00:13:01;;;;;;;10.48;8.85;;;7.90;96.20;;;;;;5061472;28;20017;-48
2021/04/30 00:15:27;;;;;;;12.43;9.35;;;7.90;96.50;;;;;;5062629;28;20069;-46
2021/04/30 00:17:52;;;;;;;11.05;8.68;;;7.90;96.50;;;;;;5062625;28;20047;-47
2021/04/30 00:20:18;;;;;;;13.30;8.73;;;7.90;96.70;;;;;;5062465;28;20029;-46
2021/04/30 00:22:43;;;;;;;10.40;8.27;;;7.90;96.70;;;;;;5060493;22;20045;-43
2021/04/30 00:25:10;;;;;;;9.75;8.75;;;7.90;96.50;;;;;;5032804;28;20029;-41
2021/04/30 00:27:36;;;;;;;9.75;8.77;;;7.90;96.80;;;;;;5033749;28;20109;-41
2021/04/30 00:30:03;;;;;;;9.57;8.68;;;7.80;97.90;;;;;;5033212;28;20035;-44
2021/04/30 00:32:29;;;;;;;13.93;9.15;;;7.60;98.40;;;;;;5033041;28;20026;-43
2021/04/30 00:34:54;;;;;;;9.65;8.55;;;7.50;98.60;;;;;;5015523;28;20040;-41
2021/04/30 00:37:20;;;;;;;13.00;8.93;;;7.40;99.00;;;;;;5033897;28;20105;-42
2021/04/30 00:39:45;;;;;;;10.60;9.02;;;7.20;98.40;;;;;;5033578;28;20083;-42
2021/04/30 00:42:14;;;;;;;11.55;9.82;;;7.30;98.20;;;;;;5033321;28;20083;-41
2021/04/30 00:44:43;;;;;;;12.52;9.35;;;7.20;97.90;;;;;;5031446;28;20033;-47
2021/04/30 00:47:25;;;;;;;10.23;8.55;;;7.30;97.70;;;;;;5033022;28;20368;-44
2021/04/30 00:49:50;;;;;;;8.98;8.05;;;7.30;97.50;;;;;;5032939;28;20029;-42
2021/04/30 00:52:16;;;;;;;11.57;8.85;;;7.40;97.40;;;;;;5033167;28;20030;-42
2021/04/30 00:54:41;;;;;;;10.10;8.38;;;7.40;97.20;;;;;;5032619;28;20052;-42
2021/04/30 00:57:07;;;;;;;12.80;9.45;;;7.40;97.20;;;;;;5033281;28;20029;-43
2021/04/30 00:59:32;;;;;;;11.50;9.35;;;7.40;97.10;;;;;;5033027;28;20483;-44
2021/04/30 01:01:58;;;;;;;12.48;8.60;;;7.40;98.20;;;;;;5032691;28;20053;-42
2021/04/30 01:04:23;;;;;;;10.63;9.13;;;7.40;98.40;;;;;;5031516;28;20033;-41
2021/04/30 01:06:49;;;;;;;11.93;9.05;;;7.30;98.60;;;;;;5012810;28;20022;-41
2021/04/30 01:09:14;;;;;;;11.25;9.50;;;7.20;98.30;;;;;;5030682;28;20032;-44
2021/04/30 01:11:40;;;;;;;11.65;10.00;;;7.20;98.40;;;;;;5031770;28;20029;-41
2021/04/30 01:14:05;;;;;;;16.00;10.45;;;7.30;98.50;;;;;;5035957;28;20089;-42
2021/04/30 01:16:31;;;;;;;11.02;9.30;;;7.30;98.10;;;;;;5035781;28;20450;-43
2021/04/30 01:18:56;;;;;;;12.45;10.27;;;7.10;98.00;;;;;;5036589;28;20052;-48
2021/04/30 01:21:24;;;;;;;10.48;9.18;;;7.00;98.70;;;;;;5037329;28;20112;-41
2021/04/30 01:23:53;;;;;;;10.68;9.57;;;6.90;98.80;;;;;;5030621;28;20041;-40
2021/04/30 01:26:20;;;;;;;13.18;10.07;;;6.90;98.80;;;;;;5031277;28;20018;-41
2021/04/30 01:28:47;;;;;;;14.15;9.75;;;6.80;99.30;;;;;;5032836;28;20376;-44
2021/04/30 01:31:13;;;;;;;11.63;10.10;;;6.80;99.60;;;;;;5032849;28;20057;-41
2021/04/30 01:33:38;;;;;;;14.95;10.85;;;6.80;99.50;;;;;;5032768;28;20041;-41
2021/04/30 01:36:05;;;;;;;15.95;11.13;;;6.50;99.10;;;;;;5031015;28;20038;-44
2021/04/30 01:38:31;;;;;;;13.27;10.65;;;6.40;99.30;;;;;;5031093;28;20033;-40
2021/04/30 01:40:57;;;;;;;13.13;11.00;;;6.40;99.60;;;;;;5012762;28;20116;-41
2021/04/30 01:43:25;;;;;;;17.17;11.65;;;6.40;99.70;;;;;;5030039;28;20502;-41
2021/04/30 01:45:54;;;;;;;13.98;12.48;;;6.40;99.90;;;;;;5030323;28;20080;-41
2021/04/30 01:48:28;;;;;;;12.73;10.48;;;6.30;99.90;;;;;;5031304;28;20049;-43
2021/04/30 01:50:56;;;;;;;13.07;11.05;;;6.30;99.90;;;;;;5033858;28;20442;-45
2021/04/30 01:53:28;;;;;;;13.25;11.68;;;6.30;99.90;;;;;;5033168;28;20093;-41
2021/04/30 01:55:54;;;;;;;17.02;12.80;;;6.40;99.90;;;;;;5034370;28;20117;-42
2021/04/30 01:58:20;;;;;;;13.18;11.35;;;6.60;99.90;;;;;;5034047;28;20029;-47
2021/04/30 02:00:46;;;;;;;19.48;12.48;;;6.60;99.90;;;;;;5015977;28;20412;-43
2021/04/30 02:03:12;;;;;;;15.48;12.32;;;6.60;99.90;;;;;;5015058;28;20498;-44
2021/04/30 02:05:40;;;;;;;20.13;12.27;;;6.60;99.80;;;;;;5034273;28;20491;-47
2021/04/30 02:08:08;;;;;;;14.32;11.27;;;6.70;99.90;;;;;;5035062;28;20117;-43
2021/04/30 02:10:35;;;;;;;13.65;11.35;;;6.60;99.90;;;;;;5016394;28;20049;-42
2021/04/30 02:13:01;;;;;;;13.93;11.80;;;6.50;99.90;;;;;;5032778;28;20030;-43
2021/04/30 02:15:35;;;;;;;15.40;12.27;;;6.50;99.90;;;;;;5034074;28;20087;-42
2021/04/30 02:18:01;;;;;;;19.27;11.77;;;6.30;99.80;;;;;;5033503;28;20108;-40
2021/04/30 02:20:27;;;;;;;15.65;12.13;;;6.30;99.70;;;;;;5033584;28;20037;-40
2021/04/30 02:22:53;;;;;;;16.00;12.02;;;6.20;99.90;;;;;;5015072;28;20136;-42
2021/04/30 02:25:21;;;;;;;15.40;11.57;;;6.10;99.90;;;;;;5034594;28;20105;-41
2021/04/30 02:27:47;;;;;;;14.95;10.98;;;6.20;99.90;;;;;;5033451;28;20479;-43
2021/04/30 02:30:15;;;;;;;20.80;12.13;;;6.20;99.90;;;;;;5033414;28;20103;-43
2021/04/30 02:32:42;;;;;;;14.73;11.68;;;6.10;99.90;;;;;;5032917;28;20494;-42
2021/04/30 02:35:12;;;;;;;17.00;13.07;;;6.10;99.90;;;;;;5033604;28;20037;-42
2021/04/30 02:37:38;;;;;;;26.70;14.05;;;6.10;99.90;;;;;;5033700;28;20100;-45
2021/04/30 02:40:05;;;;;;;16.67;11.82;;;5.90;99.90;;;;;;5033112;28;20033;-43
2021/04/30 02:42:31;;;;;;;19.60;13.43;;;5.80;99.90;;;;;;5032788;28;20033;-42
2021/04/30 02:45:00;;;;;;;15.55;12.38;;;5.70;99.90;;;;;;5034001;28;20029;-44
2021/04/30 02:47:30;;;;;;;15.90;13.02;;;5.60;99.90;;;;;;5035279;28;20248;-42
2021/04/30 02:49:59;;;;;;;17.05;13.38;;;5.60;99.90;;;;;;5034555;28;20543;-42
2021/04/30 02:52:25;;;;;;;17.33;12.63;;;5.60;99.90;;;;;;5033996;28;20034;-41
2021/04/30 02:54:51;;;;;;;18.90;13.02;;;5.50;99.90;;;;;;5033455;28;20106;-45
2021/04/30 02:57:17;;;;;;;15.15;13.02;;;5.50;99.90;;;;;;5015908;28;20022;-42
2021/04/30 02:59:43;;;;;;;15.48;11.75;;;5.40;99.90;;;;;;5016397;28;20713;-41
2021/04/30 03:02:09;;;;;;;18.77;13.32;;;5.50;99.90;;;;;;5033643;28;20022;-45
2021/04/30 03:04:34;;;;;;;13.95;12.43;;;5.50;99.90;;;;;;5033407;28;20041;-42
2021/04/30 03:07:00;;;;;;;16.05;11.90;;;5.50;99.90;;;;;;5033551;28;20026;-41
2021/04/30 03:09:25;;;;;;;18.13;12.57;;;5.50;99.90;;;;;;5033011;28;20029;-43
2021/04/30 03:11:51;;;;;;;17.13;12.85;;;5.60;99.90;;;;;;5033478;28;20036;-42
2021/04/30 03:14:16;;;;;;;15.80;13.27;;;5.60;99.90;;;;;;5032411;28;20502;-41
2021/04/30 03:16:42;;;;;;;14.80;12.98;;;5.50;99.90;;;;;;5034579;28;20036;-42
2021/04/30 03:19:09;;;;;;;16.75;12.38;;;5.50;99.90;;;;;;5036036;28;20446;-42
2021/04/30 03:21:35;;;;;;;17.08;12.75;;;5.60;99.90;;;;;;5036654;28;20037;-44
2021/04/30 03:24:01;;;;;;;15.80;13.32;;;5.60;99.90;;;;;;5035745;28;20037;-43
2021/04/30 03:26:26;;;;;;;14.90;12.98;;;5.60;99.90;;;;;;5036288;28;20029;-43
2021/04/30 03:28:52;;;;;;;15.48;12.43;;;5.60;99.90;;;;;;5035464;28;20417;-42
2021/04/30 03:31:17;;;;;;;13.90;12.40;;;5.50;99.90;;;;;;5034339;28;20030;-42
2021/04/30 03:33:43;;;;;;;13.93;12.48;;;5.50;99.90;;;;;;5033762;28;20033;-45
2021/04/30 03:36:08;;;;;;;17.67;13.10;;;5.40;99.90;;;;;;5033941;28;20032;-42
2021/04/30 03:38:34;;;;;;;16.52;13.75;;;5.40;99.90;;;;;;5015830;28;20026;-48
2021/04/30 03:41:00;;;;;;;19.55;13.57;;;5.50;99.90;;;;;;5032588;28;20026;-42
2021/04/30 03:43:26;;;;;;;17.25;13.48;;;5.40;99.90;;;;;;5031644;28;20026;-44
2021/04/30 03:45:52;;;;;;;17.85;14.10;;;5.20;99.90;;;;;;5032350;28;20061;-41
2021/04/30 03:48:18;;;;;;;18.73;14.13;;;5.10;99.90;;;;;;5031977;28;20151;-47
2021/04/30 03:50:43;;;;;;;17.98;14.38;;;5.10;99.90;;;;;;5031749;28;20029;-45
2021/04/30 03:53:09;;;;;;;18.23;13.73;;;5.10;99.90;;;;;;5030943;28;20025;-42
2021/04/30 03:55:35;;;;;;;17.88;13.68;;;5.10;99.90;;;;;;5031499;28;20017;-44
2021/04/30 03:58:00;;;;;;;16.40;13.20;;;5.10;99.90;;;;;;5013654;28;20032;-44
2021/04/30 04:00:26;;;;;;;21.13;14.63;;;5.10;99.90;;;;;;5031369;28;20029;-44
2021/04/30 04:02:51;;;;;;;19.08;15.38;;;5.30;99.90;;;;;;5030981;28;20040;-43
2021/04/30 04:05:17;;;;;;;18.88;14.07;;;5.10;99.90;;;;;;5032189;28;20029;-42
2021/04/30 04:07:42;;;;;;;16.83;13.43;;;5.00;99.90;;;;;;5031544;28;20029;-44
2021/04/30 04:10:08;;;;;;;17.23;13.18;;;4.90;99.90;;;;;;5031658;28;20076;-42
2021/04/30 04:12:34;;;;;;;17.58;13.23;;;4.90;99.90;;;;;;5030233;28;20025;-39
2021/04/30 04:15:00;;;;;;;18.80;13.48;;;4.90;99.90;;;;;;5031019;28;20024;-45
2021/04/30 04:17:25;;;;;;;14.93;12.23;;;5.00;99.90;;;;;;5031222;28;20033;-42
2021/04/30 04:19:51;;;;;;;15.35;12.55;;;4.90;99.90;;;;;;5031298;28;20375;-45
2021/04/30 04:22:18;;;;;;;14.10;12.57;;;4.90;99.90;;;;;;5030604;28;20029;-43
2021/04/30 04:24:43;;;;;;;19.13;13.70;;;4.90;99.90;;;;;;5030109;28;20091;-45
2021/04/30 04:27:09;;;;;;;18.08;12.85;;;5.00;99.90;;;;;;5031083;28;20033;-42
2021/04/30 04:29:36;;;;;;;17.13;12.80;;;5.00;99.90;;;;;;5031271;28;20056;-43
2021/04/30 04:32:03;;;;;;;16.27;13.45;;;5.10;99.90;;;;;;5031031;28;20041;-42
2021/04/30 04:34:28;;;;;;;16.50;13.68;;;5.10;99.90;;;;;;5030479;28;20027;-46
2021/04/30 04:36:54;;;;;;;16.92;13.15;;;5.10;99.90;;;;;;5032444;28;20406;-44
2021/04/30 04:39:20;;;;;;;21.60;14.88;;;5.10;99.90;;;;;;5034748;28;20037;-46
2021/04/30 04:41:45;;;;;;;19.40;14.38;;;5.20;99.90;;;;;;5033849;28;20030;-41
2021/04/30 04:44:12;;;;;;;16.33;13.35;;;5.30;99.90;;;;;;5031120;28;20083;-41
2021/04/30 04:46:38;;;;;;;17.55;13.80;;;5.40;99.90;;;;;;5031856;28;20332;-45
2021/04/30 04:49:03;;;;;;;18.88;13.23;;;5.50;99.90;;;;;;5031974;28;20017;-41
2021/04/30 04:51:29;;;;;;;15.18;12.27;;;5.60;99.90;;;;;;5031318;28;20033;-43
2021/04/30 04:53:54;;;;;;;22.25;13.55;;;5.60;99.90;;;;;;5032424;28;20029;-44
2021/04/30 04:56:25;;;;;;;15.10;12.65;;;5.80;99.90;;;;;;5034647;28;20026;-41
2021/04/30 04:58:50;;;;;;;15.73;13.10;;;6.20;99.90;;;;;;5035041;28;20055;-44
2021/04/30 05:01:16;;;;;;;16.92;13.40;;;6.40;99.90;;;;;;5034549;28;20515;-41
2021/04/30 05:03:41;;;;;;;16.17;13.65;;;6.50;99.90;;;;;;5034337;28;20018;-42
2021/04/30 05:06:07;;;;;;;17.10;12.70;;;6.70;99.60;;;;;;5034547;28;20034;-40
2021/04/30 05:08:32;;;;;;;14.30;12.60;;;6.90;99.00;;;;;;5034708;28;20026;-45
2021/04/30 05:10:58;;;;;;;14.73;12.45;;;7.10;98.40;;;;;;5034233;28;20385;-41
2021/04/30 05:13:23;;;;;;;15.70;12.82;;;7.30;98.30;;;;;;5033444;28;20025;-46
2021/04/30 05:15:49;;;;;;;16.13;12.85;;;7.50;98.10;;;;;;5027422;28;20060;-43
2021/04/30 05:18:15;;;;;;;18.85;13.15;;;7.90;97.40;;;;;;5034188;28;20029;-45
2021/04/30 05:20:40;;;;;;;17.25;13.05;;;8.00;96.90;;;;;;5033831;28;20055;-41
2021/04/30 05:23:06;;;;;;;16.73;12.75;;;8.10;96.80;;;;;;5035175;28;20105;-41
2021/04/30 05:25:32;;;;;;;17.75;11.80;;;8.10;97.30;;;;;;5037870;28;20152;-42
2021/04/30 05:27:58;;;;;;;15.68;11.68;;;8.30;96.80;;;;;;5047317;28;20573;-44
2021/04/30 05:30:24;;;;;;;15.15;12.35;;;8.50;96.20;;;;;;5057557;28;20398;-41
2021/04/30 05:32:49;;;;;;;19.70;12.82;;;8.90;95.30;;;;;;5050117;28;20036;-48
2021/04/30 05:35:16;;;;;;;13.65;11.68;;;9.00;95.60;;;;;;5037643;28;20492;-48
2021/04/30 05:37:42;;;;;;;13.70;11.25;;;9.30;95.20;;;;;;5054168;28;20025;-53
2021/04/30 05:40:08;;;;;;;13.10;11.73;;;9.60;95.10;;;;;;5039375;28;20099;-44
2021/04/30 05:42:33;;;;;;;14.00;10.90;;;10.00;94.00;;;;;;5034238;28;20165;-40
2021/04/30 05:45:00;;;;;;;11.63;10.07;;;10.50;93.50;;;;;;5033655;28;20479;-43
2021/04/30 05:47:25;;;;;;;12.48;11.15;;;11.40;91.90;;;;;;5033533;28;20029;-46
2021/04/30 05:49:51;;;;;;;14.30;11.13;;;11.60;89.80;;;;;;5033698;28;20025;-43
2021/04/30 05:52:17;;;;;;;15.57;12.55;;;11.60;90.00;;;;;;5033712;28;20471;-45
2021/04/30 05:54:42;;;;;;;13.52;12.13;;;11.50;90.10;;;;;;5032917;28;20031;-45
2021/04/30 05:57:08;;;;;;;14.32;11.50;;;11.60;89.80;;;;;;5034876;28;20492;-45
2021/04/30 05:59:34;;;;;;;14.60;12.20;;;11.40;90.60;;;;;;5034079;28;20030;-45
2021/04/30 06:01:59;;;;;;;14.50;10.93;;;11.50;89.90;;;;;;5033240;28;20076;-45
2021/04/30 06:04:26;;;;;;;17.55;11.68;;;11.30;91.00;;;;;;5032368;28;20017;-42
2021/04/30 06:06:52;;;;;;;13.15;10.73;;;11.10;90.80;;;;;;5033038;28;20026;-44
2021/04/30 06:09:18;;;;;;;15.05;11.73;;;10.90;91.00;;;;;;5033137;28;20105;-43
2021/04/30 06:11:44;;;;;;;16.50;11.80;;;10.80;90.90;;;;;;5033259;28;20110;-46
2021/04/30 06:14:11;;;;;;;18.30;12.07;;;10.80;91.30;;;;;;5032338;28;20540;-47
2021/04/30 06:16:37;;;;;;;16.40;11.18;;;10.60;91.80;;;;;;5032931;28;20029;-44
2021/04/30 06:19:03;;;;;;;12.98;11.07;;;10.80;91.80;;;;;;5032890;28;20395;-42
2021/04/30 06:21:29;;;;;;;13.35;11.95;;;11.10;91.60;;;;;;5033102;28;20025;-46
2021/04/30 06:23:54;;;;;;;13.05;11.75;;;11.70;90.80;;;;;;5099421;22;20048;-44
2021/04/30 06:26:20;;;;;;;15.15;11.70;;;12.10;89.70;;;;;;5085782;28;20028;-44
2021/04/30 06:28:45;;;;;;;14.50;11.70;;;11.90;89.30;;;;;;5103858;28;20028;-45
2021/04/30 06:31:11;;;;;;;16.85;11.15;;;11.50;90.10;;;;;;5102154;28;20342;-44
2021/04/30 06:33:36;;;;;;;14.73;11.48;;;11.20;90.90;;;;;;5100803;28;20039;-46
2021/04/30 06:36:02;;;;;;;17.85;13.18;;;11.00;91.60;;;;;;5102475;28;20032;-47
2021/04/30 06:38:28;;;;;;;18.95;13.70;;;10.80;91.30;;;;;;5102405;28;20028;-47
2021/04/30 06:40:53;;;;;;;18.83;13.45;;;10.60;91.80;;;;;;5101523;28;20027;-50
2021/04/30 06:43:19;;;;;;;19.38;14.57;;;10.60;91.70;;;;;;5092432;28;20028;-45
2021/04/30 06:45:45;;;;;;;18.92;15.05;;;10.60;91.80;;;;;;5073746;28;20108;-45
2021/04/30 06:48:10;;;;;;;24.38;15.38;;;10.60;92.10;;;;;;5072670;28;20055;-48
2021/04/30 06:50:36;;;;;;;21.95;16.48;;;10.40;92.30;;;;;;5085875;28;20136;-52
2021/04/30 06:53:02;;;;;;;23.55;16.00;;;10.30;92.40;;;;;;5098641;28;20050;-48
2021/04/30 06:55:27;;;;;;;20.27;15.13;;;10.10;92.60;;;;;;5102843;28;20209;-54
2021/04/30 06:57:53;;;;;;;23.83;16.08;;;10.10;93.10;;;;;;5083929;28;20035;-48
2021/04/30 07:00:19;;;;;;;21.85;16.17;;;10.10;92.70;;;;;;5097030;28;20028;-50
2021/04/30 07:02:45;;;;;;;22.50;15.80;;;9.90;93.20;;;;;;5088094;28;20036;-45
2021/04/30 07:05:12;;;;;;;20.48;16.05;;;9.80;93.80;;;;;;5082204;28;20067;-52
2021/04/30 07:07:38;;;;;;;16.73;14.23;;;9.80;94.10;;;;;;5083393;28;20040;-48
2021/04/30 07:10:05;;;;;;;24.35;16.77;;;9.80;94.30;;;;;;5069386;28;20398;-52
2021/04/30 07:12:31;;;;;;;21.40;16.63;;;9.70;94.70;;;;;;5079317;28;20017;-60
2021/04/30 07:14:57;;;;;;;23.90;16.40;;;9.80;94.70;;;;;;5088945;28;20149;-55
2021/04/30 07:17:22;;;;;;;23.85;17.77;;;10.00;94.50;;;;;;5056485;28;20052;-55
2021/04/30 07:19:48;;;;;;;22.63;19.25;;;10.10;94.50;;;;;;5076344;28;20020;-52
2021/04/30 07:22:14;;;;;;;21.48;16.70;;;10.10;94.40;;;;;;5090862;28;20059;-52
2021/04/30 07:24:41;;;;;;;20.90;17.27;;;10.10;94.50;;;;;;5088306;28;20027;-57
2021/04/30 07:27:07;;;;;;;20.73;16.75;;;10.00;94.50;;;;;;5063650;28;20032;-51
2021/04/30 07:29:33;;;;;;;27.35;19.40;;;10.10;94.70;;;;;;5075354;28;20072;-50
2021/04/30 07:31:59;;;;;;;21.48;17.63;;;10.20;94.30;;;;;;5071522;28;20032;-56
2021/04/30 07:34:25;;;;;;;26.00;17.67;;;10.20;93.00;;;;;;5070305;28;20029;-54
2021/04/30 07:36:51;;;;;;;22.52;16.65;;;10.30;92.40;;;;;;5058440;28;20020;-50
2021/04/30 07:39:17;;;;;;;25.35;15.80;;;10.40;92.70;;;;;;5090530;28;20408;-50
2021/04/30 07:41:43;;;;;;;23.08;17.63;;;10.30;92.20;;;;;;5083192;28;20021;-48
2021/04/30 07:44:08;;;;;;;19.83;17.50;;;10.20;92.90;;;;;;5069835;28;20032;-47
2021/04/30 07:46:34;;;;;;;26.40;18.02;;;10.10;92.50;;;;;;5081918;28;20040;-49
2021/04/30 07:48:59;;;;;;;22.00;16.73;;;9.90;92.30;;;;;;5079052;28;20028;-48
2021/04/30 07:51:25;;;;;;;27.33;17.73;;;9.90;92.70;;;;;;5087410;28;20118;-52
2021/04/30 07:53:51;;;;;;;22.15;18.23;;;9.80;92.70;;;;;;5089447;28;20076;-51
2021/04/30 07:56:16;;;;;;;23.45;17.23;;;9.90;92.70;;;;;;5071840;28;20051;-51
2021/04/30 07:58:42;;;;;;;23.33;17.08;;;10.20;92.50;;;;;;5071459;28;20025;-53
2021/04/30 08:01:08;;;;;;;25.98;18.42;;;10.40;93.20;;;;;;5069766;28;20028;-49
2021/04/30 08:03:33;;;;;;;29.75;17.58;;;10.60;92.10;;;;;;5052813;28;20280;-49
2021/04/30 08:05:59;;;;;;;22.10;17.05;;;10.80;91.90;;;;;;5086991;28;20032;-56
2021/04/30 08:08:24;;;;;;;21.50;17.80;;;10.80;91.60;;;;;;5077181;28;20036;-55
2021/04/30 08:10:50;;;;;;;26.55;17.95;;;10.70;91.20;;;;;;5063099;28;20028;-55
2021/04/30 08:13:16;;;;;;;29.23;18.35;;;10.70;91.80;;;;;;5069755;28;20462;-49
2021/04/30 08:15:42;;;;;;;27.60;19.98;;;10.90;92.20;;;;;;5070297;28;20108;-53
2021/04/30 08:18:07;;;;;;;27.40;19.10;;;10.80;92.00;;;;;;5081793;28;20085;-56
2021/04/30 08:20:33;;;;;;;20.95;16.58;;;10.60;92.50;;;;;;5078658;28;20099;-57
2021/04/30 08:23:02;;;;;;;22.42;18.13;;;10.50;93.00;;;;;;5073546;28;20063;-50
2021/04/30 08:25:28;;;;;;;24.70;17.80;;;10.40;92.00;;;;;;5095798;28;20032;-48
2021/04/30 08:27:54;;;;;;;27.63;18.40;;;10.30;92.90;;;;;;5104489;28;20584;-53
2021/04/30 08:30:20;;;;;;;26.40;18.58;;;10.30;93.20;;;;;;5105045;28;20550;-46
2021/04/30 08:32:46;;;;;;;26.83;18.77;;;10.50;93.30;;;;;;5086679;28;20031;-48
2021/04/30 08:35:12;;;;;;;30.20;19.10;;;10.50;93.20;;;;;;5105563;28;20020;-47
2021/04/30 08:37:38;;;;;;;25.77;18.65;;;10.50;93.30;;;;;;5099754;28;20095;-47
2021/04/30 08:40:06;;;;;;;24.75;19.55;;;10.50;93.80;;;;;;5085434;28;20024;-48
2021/04/30 08:42:32;;;;;;;32.83;18.75;;;10.50;92.60;;;;;;5086094;28;20162;-52
2021/04/30 08:44:58;;;;;;;28.70;19.67;;;10.40;93.50;;;;;;5085217;28;20024;-50
2021/04/30 08:47:23;;;;;;;24.10;18.60;;;10.30;93.50;;;;;;5102661;28;20543;-50
2021/04/30 08:49:53;;;;;;;24.45;19.15;;;10.20;93.60;;;;;;5103663;28;20028;-55
2021/04/30 08:52:19;;;;;;;27.73;19.42;;;10.30;93.50;;;;;;5102340;28;20035;-50
2021/04/30 08:54:49;;;;;;;32.65;22.20;;;10.30;93.40;;;;;;5085514;28;20032;-55
2021/04/30 08:57:20;;;;;;;29.33;19.30;;;10.40;93.30;;;;;;5105364;28;20449;-49
2021/04/30 08:59:46;;;;;;;42.80;20.88;;;10.30;93.50;;;;;;5087649;28;20056;-50
2021/04/30 09:02:12;;;;;;;29.52;19.88;;;10.30;93.50;;;;;;5086125;28;20040;-47
2021/04/30 09:04:41;;;;;;;25.42;18.75;;;10.30;93.80;;;;;;5066845;28;20032;-48
2021/04/30 09:07:20;;;;;;;26.33;18.63;;;10.30;93.50;;;;;;5063455;28;20062;-52
2021/04/30 09:10:01;;;;;;;28.27;19.02;;;10.50;93.40;;;;;;5087080;28;20028;-55
2021/04/30 09:12:28;;;;;;;24.25;18.35;;;10.50;93.40;;;;;;5086584;28;20024;-44
2021/04/30 09:14:56;;;;;;;23.10;19.02;;;10.60;93.10;;;;;;5105598;28;20026;-54
2021/04/30 09:17:22;;;;;;;29.13;19.05;;;10.70;92.70;;;;;;5109089;28;20084;-52
2021/04/30 09:20:03;;;;;;;30.17;19.98;;;10.60;93.10;;;;;;5097900;28;20034;-47
2021/04/30 09:22:37;;;;;;;30.30;20.55;;;10.80;92.90;;;;;;5091517;28;20024;-45
2021/04/30 09:25:06;;;;;;;24.95;19.33;;;10.70;92.80;;;;;;5104821;28;20029;-50
2021/04/30 09:27:33;;;;;;;24.02;17.83;;;10.60;93.30;;;;;;5071229;28;20020;-50
2021/04/30 09:30:21;;;;;;;23.15;17.27;;;10.60;92.70;;;;;;5091776;28;20039;-48
2021/04/30 09:33:12;;;;;;;33.67;19.40;;;10.60;93.00;;;;;;5090604;28;20028;-54
2021/04/30 09:35:46;;;;;;;32.90;17.40;;;10.50;93.50;;;;;;5090840;28;20067;-53
2021/04/30 09:38:21;;;;;;;20.27;16.42;;;10.60;93.00;;;;;;5092064;28;20024;-48
2021/04/30 09:40:48;;;;;;;22.20;16.77;;;10.50;93.40;;;;;;5111082;28;20089;-52
2021/04/30 09:43:14;;;;;;;25.48;16.63;;;10.40;93.70;;;;;;5108460;28;20028;-50
2021/04/30 09:45:41;;;;;;;23.08;16.77;;;10.40;93.40;;;;;;5103427;28;20087;-52
2021/04/30 09:48:11;;;;;;;25.25;17.65;;;10.50;93.20;;;;;;5090246;28;20055;-48
2021/04/30 09:50:39;;;;;;;25.52;17.83;;;10.70;93.30;;;;;;5091748;28;20021;-46
2021/04/30 09:53:09;;;;;;;27.02;16.98;;;10.70;92.80;;;;;;5090239;28;20027;-51
2021/04/30 09:55:49;;;;;;;29.00;18.35;;;10.50;92.80;;;;;;5090650;28;20027;-51
2021/04/30 09:58:20;;;;;;;21.38;16.45;;;10.50;93.40;;;;;;5090631;28;20024;-52
2021/04/30 10:00:49;;;;;;;25.67;17.70;;;10.50;93.20;;;;;;5093735;28;20023;-52
2021/04/30 10:03:24;;;;;;;18.25;16.25;;;10.50;93.30;;;;;;5098407;28;20127;-53
2021/04/30 10:06:06;;;;;;;28.25;17.52;;;10.60;92.30;;;;;;5078072;28;20020;-52
2021/04/30 10:08:34;;;;;;;22.38;16.02;;;10.70;92.30;;;;;;5109627;28;20024;-51
2021/04/30 10:10:59;;;;;;;24.20;17.17;;;10.70;92.00;;;;;;5084952;28;20028;-48
2021/04/30 10:13:25;;;;;;;21.75;16.23;;;10.90;91.80;;;;;;5070435;28;20084;-52
2021/04/30 10:15:51;;;;;;;24.17;16.00;;;10.80;91.80;;;;;;5090615;28;20031;-48
2021/04/30 10:18:18;;;;;;;23.75;15.52;;;10.90;91.60;;;;;;5072057;28;20018;-53
2021/04/30 10:20:47;;;;;;;20.58;16.13;;;10.90;91.50;;;;;;5089933;28;20401;-47
2021/04/30 10:23:20;;;;;;;22.00;15.27;;;11.00;91.70;;;;;;5088682;28;20047;-52
2021/04/30 10:25:51;;;;;;;24.30;15.45;;;11.20;91.50;;;;;;5091890;28;20028;-52
2021/04/30 10:28:24;;;;;;;18.30;16.15;;;11.10;92.10;;;;;;5090881;28;20037;-54
2021/04/30 10:31:04;;;;;;;24.63;17.95;;;11.10;92.00;;;;;;5092677;28;20024;-50
2021/04/30 10:33:41;;;;;;;26.52;18.00;;;11.10;92.00;;;;;;5109466;28;20016;-50
2021/04/30 10:36:29;;;;;;;22.48;15.90;;;11.10;92.10;;;;;;5090519;28;20028;-54
2021/04/30 10:38:56;;;;;;;27.23;17.00;;;11.10;92.90;;;;;;5092507;28;20028;-55
2021/04/30 10:41:32;;;;;;;23.90;16.67;;;11.10;92.20;;;;;;5107636;28;20012;-51
2021/04/30 10:44:23;;;;;;;18.88;16.77;;;11.10;91.90;;;;;;5089912;28;20024;-51
2021/04/30 10:47:15;;;;;;;21.48;16.05;;;11.20;91.40;;;;;;5108413;28;20031;-55
2021/04/30 10:49:43;;;;;;;22.30;15.13;;;11.10;91.20;;;;;;5091440;28;20031;-50
2021/04/30 10:52:23;;;;;;;21.63;16.17;;;11.10;91.40;;;;;;5097423;28;20028;-53
2021/04/30 10:55:16;;;;;;;23.42;16.27;;;11.10;92.00;;;;;;5088861;28;20016;-50
2021/04/30 10:57:49;;;;;;;20.80;15.15;;;11.40;91.20;;;;;;5082534;28;20044;-48
2021/04/30 11:00:15;;;;;;;18.13;14.35;;;11.40;90.70;;;;;;5069343;28;20176;-50
2021/04/30 11:02:40;;;;;;;23.15;15.05;;;11.40;90.10;;;;;;5088004;28;20017;-51
2021/04/30 11:05:06;;;;;;;19.42;13.45;;;11.30;89.00;;;;;;5086592;28;20021;-50
2021/04/30 11:07:35;;;;;;;16.95;12.23;;;11.30;88.20;;;;;;5078092;28;20028;-51
2021/04/30 11:10:20;;;;;;;14.55;12.40;;;11.40;86.50;;;;;;5089486;28;20025;-51
2021/04/30 11:13:06;;;;;;;23.50;14.05;;;11.50;85.80;;;;;;5105714;28;20031;-48
2021/04/30 11:15:51;;;;;;;15.43;11.98;;;11.70;84.80;;;;;;5091133;28;20024;-53
2021/04/30 11:18:25;;;;;;;17.53;12.13;;;11.80;84.40;;;;;;5108555;28;20024;-48
2021/04/30 11:21:10;;;;;;;14.13;12.45;;;11.90;84.50;;;;;;5107888;28;20035;-53
2021/04/30 11:23:35;;;;;;;19.42;12.38;;;11.80;83.40;;;;;;5106621;28;20058;-57
2021/04/30 11:26:04;;;;;;;15.00;12.13;;;11.70;84.10;;;;;;5109827;28;20051;-51
2021/04/30 11:28:29;;;;;;;17.30;12.75;;;11.80;84.90;;;;;;5097005;28;20031;-57
2021/04/30 11:31:28;;;;;;;17.35;11.73;;;12.10;86.60;;;;;;5103658;28;20029;-53
2021/04/30 11:34:12;;;;;;;19.73;12.77;;;12.10;85.90;;;;;;5083434;28;20028;-51
2021/04/30 11:36:39;;;;;;;24.75;11.90;;;12.10;83.90;;;;;;5081108;28;20020;-53
2021/04/30 11:39:28;;;;;;;17.58;12.80;;;12.00;83.90;;;;;;5090679;28;20027;-51
2021/04/30 11:42:00;;;;;;;14.38;11.23;;;12.00;83.00;;;;;;5078216;28;20055;-53
2021/04/30 11:44:27;;;;;;;15.90;12.30;;;12.00;83.70;;;;;;5069043;28;20028;-53
2021/04/30 11:47:01;;;;;;;19.73;12.43;;;12.00;83.70;;;;;;5092399;28;20155;-54
2021/04/30 11:49:28;;;;;;;15.17;11.37;;;12.00;83.30;;;;;;5076917;28;20024;-44
2021/04/30 11:51:54;;;;;;;12.82;11.15;;;11.80;83.20;;;;;;5107098;28;20074;-54
2021/04/30 11:54:26;;;;;;;15.27;11.82;;;11.80;83.20;;;;;;5089307;28;20028;-50
2021/04/30 11:57:00;;;;;;;20.35;12.48;;;11.80;83.40;;;;;;5091476;28;20025;-51
2021/04/30 11:59:26;;;;;;;15.98;11.27;;;11.70;84.70;;;;;;5073844;28;20019;-55
2021/04/30 12:01:56;;;;;;;18.25;12.52;;;11.70;85.70;;;;;;5092493;28;20095;-61
2021/04/30 12:04:38;;;;;;;17.17;12.18;;;11.80;84.40;;;;;;5091233;28;20330;-61
2021/04/30 12:07:04;;;;;;;15.43;11.25;;;11.80;83.80;;;;;;5073540;28;20033;-57
2021/04/30 12:09:30;;;;;;;15.18;12.32;;;11.60;84.70;;;;;;5053034;28;20118;-58
2021/04/30 12:12:12;;;;;;;15.88;11.50;;;11.40;85.80;;;;;;5053303;28;20154;-57
2021/04/30 12:15:01;;;;;;;19.25;13.63;;;11.40;87.40;;;;;;5069318;28;20020;-63
2021/04/30 12:17:30;;;;;;;13.43;10.68;;;11.60;86.00;;;;;;5071117;28;20021;-60
2021/04/30 12:20:04;;;;;;;16.92;11.52;;;11.50;86.50;;;;;;5071517;28;20049;-58
2021/04/30 12:25:28;;;;;;;22.35;15.13;;;11.60;88.80;;;;;;5086398;28;20040;-55
2021/04/30 12:28:13;;;;;;;24.17;13.88;;;11.80;87.80;;;;;;5089384;28;20020;-60
2021/04/30 12:30:40;;;;;;;18.13;14.73;;;11.70;86.40;;;;;;5089580;28;20042;-59
2021/04/30 12:33:06;;;;;;;21.33;14.48;;;11.60;87.90;;;;;;5088246;28;20031;-59
2021/04/30 12:35:32;;;;;;;18.60;14.43;;;11.50;89.40;;;;;;5089474;28;20456;-53
2021/04/30 12:37:58;;;;;;;16.25;14.02;;;11.70;89.40;;;;;;5071219;28;20146;-60
2021/04/30 12:40:28;;;;;;;26.80;16.13;;;11.70;90.20;;;;;;5089519;28;20481;-59